Current Conditions
Mostly Cloudy
Conditions



Pressure
1012.87 (hPa) - 29.91 (inHG)
Visibility

9.7 (km) - 6.0 (miles)
Temperature
8  °C
Temperature
7  °C
Dewpoint
93  %
 Humidity
Wind Speed
29  km/h
16  kts
18  mph
8.0  m/s
Wind Direction
N
45°
E
90°
135°
S
180°
225°
W
270°
315°
 230°

South West
Airport Data
ELLX
Luxembourg-Findel International Airport
Metar :ELLX 291320Z 23016KT 9999 BKN012 08/07 Q1013 TEMPO 23015G25KT 3500 BKN007
Fri 29th December 15:20 pm
Raw Metar Info
Raw METAR is the most common format in the world for the transmission of observational weather data. It is highly standardized through the International Civil Aviation Organization (ICAO), which allows it to be understood throughout most of the world.
API Info
Data Provided by
https://www.checkwx.com/weather/EHAM

Aviation Weather providing METAR, TAF, AIRMET, SIGMET and OUTLOOK Weather Reports
© Info
CSS/SVG/PHP scripts were developed by weather34 for use in the weather34 template © 2015-2024

Guide Info provided by Metar-Wikipedia